createdAt,value
2018-08-30T00:00:26.784Z,20.93
2018-08-30T00:02:54.774Z,19.13
2018-08-30T00:05:22.742Z,16.63
2018-08-30T00:07:50.689Z,17.40
2018-08-30T00:10:18.753Z,16.03
2018-08-30T00:12:46.771Z,14.70
2018-08-30T00:15:14.844Z,12.93
2018-08-30T00:17:42.876Z,12.20
2018-08-30T00:20:10.835Z,11.37
2018-08-30T00:22:38.790Z,12.30
2018-08-30T00:25:06.770Z,11.27
2018-08-30T00:27:34.802Z,11.70
2018-08-30T00:30:02.818Z,12.03
2018-08-30T00:32:30.823Z,12.30
2018-08-30T00:34:58.846Z,11.50
2018-08-30T00:37:26.799Z,11.30
2018-08-30T00:39:54.799Z,11.50
2018-08-30T00:42:22.790Z,11.47
2018-08-30T00:44:50.787Z,12.23
2018-08-30T00:47:21.457Z,11.97
2018-08-30T00:49:50.726Z,13.27
2018-08-30T00:52:19.194Z,13.87
2018-08-30T00:54:47.447Z,14.23
2018-08-30T00:57:15.803Z,14.63
2018-08-30T00:59:43.759Z,14.53
2018-08-30T01:02:11.719Z,15.20
2018-08-30T01:04:39.705Z,15.40
2018-08-30T01:07:07.663Z,16.00
2018-08-30T01:09:35.658Z,16.40
2018-08-30T01:12:03.633Z,16.00
2018-08-30T01:14:31.602Z,16.50
2018-08-30T01:16:59.575Z,16.30
2018-08-30T01:19:27.639Z,15.90
2018-08-30T01:21:55.580Z,16.33
2018-08-30T01:24:23.660Z,16.83
2018-08-30T01:26:51.634Z,17.13
2018-08-30T01:29:19.602Z,17.50
2018-08-30T01:31:47.683Z,18.30
2018-08-30T01:34:15.668Z,19.70
2018-08-30T01:36:44.442Z,19.10
2018-08-30T01:39:12.431Z,19.80
2018-08-30T01:41:41.887Z,18.80
2018-08-30T01:44:10.239Z,20.20
2018-08-30T01:46:38.223Z,19.37
2018-08-30T01:49:06.183Z,20.80
2018-08-30T01:51:34.135Z,21.00
2018-08-30T01:54:02.091Z,21.30
2018-08-30T01:56:30.128Z,20.20
2018-08-30T01:58:58.092Z,21.80
2018-08-30T02:01:26.067Z,21.47
2018-08-30T02:03:54.035Z,20.77
2018-08-30T02:06:21.980Z,21.33
2018-08-30T02:08:50.088Z,22.87
2018-08-30T02:11:18.050Z,24.27
2018-08-30T02:13:46.008Z,22.47
2018-08-30T02:16:14.048Z,21.97
2018-08-30T02:18:42.041Z,23.03
2018-08-30T02:21:09.983Z,23.27
2018-08-30T02:23:37.967Z,23.00
2018-08-30T02:26:05.977Z,24.20
2018-08-30T02:28:33.977Z,22.53
2018-08-30T02:31:01.968Z,24.80
2018-08-30T02:33:30.268Z,23.37
2018-08-30T02:35:58.231Z,23.53
2018-08-30T02:38:26.196Z,22.40
2018-08-30T02:40:54.137Z,24.63
2018-08-30T02:43:22.107Z,22.73
2018-08-30T02:45:50.104Z,22.97
2018-08-30T02:48:18.060Z,21.63
2018-08-30T02:50:46.072Z,23.30
2018-08-30T02:53:14.051Z,23.03
2018-08-30T02:55:42.048Z,24.37
2018-08-30T02:58:10.231Z,22.10
2018-08-30T03:00:38.184Z,22.70
2018-08-30T03:03:06.173Z,21.20
2018-08-30T03:05:34.140Z,23.67
2018-08-30T03:08:02.152Z,21.73
2018-08-30T03:10:30.139Z,22.53
2018-08-30T03:12:58.121Z,22.80
2018-08-30T03:15:26.089Z,21.90
2018-08-30T03:17:54.077Z,22.17
2018-08-30T03:20:22.033Z,21.23
2018-08-30T03:22:50.092Z,22.20
2018-08-30T03:25:18.081Z,20.77
2018-08-30T03:27:46.077Z,21.60
2018-08-30T03:30:14.163Z,20.63
2018-08-30T03:32:42.005Z,20.47
2018-08-30T03:35:10.073Z,21.20
2018-08-30T03:37:38.053Z,20.63
2018-08-30T03:40:06.061Z,21.10
2018-08-30T03:42:34.044Z,19.73
2018-08-30T03:45:02.321Z,20.47
2018-08-30T03:47:30.637Z,20.43
2018-08-30T03:49:58.890Z,21.70
2018-08-30T03:52:27.510Z,19.90
2018-08-30T03:54:55.749Z,20.30
2018-08-30T03:57:23.782Z,20.00
2018-08-30T03:59:51.761Z,19.93
2018-08-30T04:02:19.725Z,21.97
2018-08-30T04:04:47.806Z,21.87
2018-08-30T04:07:15.744Z,20.77
2018-08-30T04:09:43.708Z,20.80
2018-08-30T04:12:11.833Z,21.53
2018-08-30T04:14:39.802Z,21.77
2018-08-30T04:17:07.745Z,21.40
2018-08-30T04:19:35.773Z,22.03
2018-08-30T04:22:04.163Z,20.93
2018-08-30T04:24:32.398Z,21.47
2018-08-30T04:27:00.772Z,20.40
2018-08-30T04:29:28.950Z,21.23
2018-08-30T04:31:57.299Z,21.80
2018-08-30T04:34:25.537Z,21.27
2018-08-30T04:36:53.851Z,21.13
2018-08-30T04:39:22.090Z,20.80
2018-08-30T04:41:50.396Z,21.07
2018-08-30T04:44:18.630Z,21.00
2018-08-30T04:46:47.163Z,20.70
2018-08-30T04:49:15.402Z,20.63
2018-08-30T04:51:43.633Z,20.20
2018-08-30T04:54:11.890Z,21.03
2018-08-30T04:56:40.218Z,19.73
2018-08-30T04:59:08.458Z,20.23
2018-08-30T05:01:36.709Z,20.30
2018-08-30T05:04:04.782Z,20.70
2018-08-30T05:06:32.882Z,20.07
2018-08-30T05:09:00.871Z,20.33
2018-08-30T05:11:28.888Z,20.03
2018-08-30T05:13:56.829Z,19.10
2018-08-30T05:16:24.951Z,20.43
2018-08-30T05:18:52.918Z,20.57
2018-08-30T05:23:55.846Z,18.50
2018-08-30T05:26:23.819Z,18.73
2018-08-30T05:28:51.850Z,17.90
2018-08-30T05:31:19.873Z,19.50
2018-08-30T05:33:47.950Z,18.47
2018-08-30T05:36:15.967Z,18.40
2018-08-30T05:38:44.179Z,18.23
2018-08-30T05:41:12.147Z,18.00
2018-08-30T05:43:40.155Z,18.37
2018-08-30T05:46:08.132Z,18.13
2018-08-30T05:48:36.303Z,18.73
2018-08-30T05:51:04.463Z,17.07
2018-08-30T05:53:32.455Z,18.10
2018-08-30T05:56:00.718Z,35.30
2018-08-30T05:58:28.666Z,17.83
2018-08-30T06:00:56.667Z,15.73
2018-08-30T06:03:24.635Z,15.43
2018-08-30T06:05:52.607Z,15.43
2018-08-30T06:08:20.712Z,14.53
2018-08-30T06:10:48.643Z,14.37
2018-08-30T06:13:16.660Z,14.33
2018-08-30T06:15:44.628Z,13.47
2018-08-30T06:18:12.608Z,13.33
2018-08-30T06:20:40.592Z,13.33
2018-08-30T06:23:08.604Z,13.27
2018-08-30T06:25:36.608Z,12.47
2018-08-30T06:28:04.620Z,12.53
2018-08-30T06:30:32.612Z,12.00
2018-08-30T06:33:00.652Z,11.10
2018-08-30T06:35:28.633Z,11.23
2018-08-30T06:37:56.680Z,12.03
2018-08-30T06:40:24.675Z,10.77
2018-08-30T06:42:52.680Z,11.27
2018-08-30T06:45:20.844Z,10.77
2018-08-30T06:47:49.040Z,10.83
2018-08-30T06:50:17.286Z,10.23
2018-08-30T06:52:45.553Z,10.43
2018-08-30T06:55:13.769Z,10.50
2018-08-30T06:57:41.977Z,9.77
2018-08-30T07:00:10.477Z,10.53
2018-08-30T07:02:38.697Z,9.60
2018-08-30T07:05:06.964Z,9.20
2018-08-30T07:07:35.273Z,8.97
2018-08-30T07:10:03.572Z,9.27
2018-08-30T07:12:31.862Z,8.50
2018-08-30T07:15:00.356Z,8.23
2018-08-30T07:17:28.552Z,8.10
2018-08-30T07:19:57.421Z,8.10
2018-08-30T07:22:25.664Z,8.00
2018-08-30T07:24:53.846Z,8.33
2018-08-30T07:27:21.857Z,8.27
2018-08-30T07:29:49.897Z,7.87
2018-08-30T07:32:17.897Z,8.17
2018-08-30T07:34:46.015Z,8.33
2018-08-30T07:37:13.889Z,7.27
2018-08-30T07:39:41.873Z,8.20
2018-08-30T07:42:09.841Z,7.23
2018-08-30T07:44:37.986Z,7.13
2018-08-30T07:47:06.312Z,8.77
2018-08-30T07:49:34.565Z,6.80
2018-08-30T07:52:02.863Z,6.93
2018-08-30T07:54:31.121Z,6.97
2018-08-30T07:56:59.425Z,6.90
2018-08-30T07:59:27.426Z,6.10
2018-08-30T08:01:55.499Z,7.27
2018-08-30T08:04:23.497Z,6.47
2018-08-30T08:06:51.537Z,6.60
2018-08-30T08:09:19.544Z,6.43
2018-08-30T08:11:48.075Z,6.63
2018-08-30T08:14:15.997Z,6.30
2018-08-30T08:16:44.121Z,6.13
2018-08-30T08:19:12.132Z,5.73
2018-08-30T08:21:40.074Z,5.90
2018-08-30T08:24:08.074Z,5.70
2018-08-30T08:26:36.057Z,5.90
2018-08-30T08:29:04.217Z,6.20
2018-08-30T08:31:32.290Z,5.93
2018-08-30T08:34:00.390Z,5.77
2018-08-30T08:36:28.689Z,5.17
2018-08-30T08:38:56.673Z,5.47
2018-08-30T08:41:24.885Z,5.33
2018-08-30T08:43:53.119Z,5.60
2018-08-30T08:46:21.338Z,5.27
2018-08-30T08:48:49.669Z,5.37
2018-08-30T08:51:18.090Z,5.20
2018-08-30T08:53:46.277Z,5.47
2018-08-30T08:56:14.050Z,5.10
2018-08-30T08:58:42.059Z,4.90
2018-08-30T09:01:10.054Z,5.40
2018-08-30T09:03:38.611Z,4.90
2018-08-30T09:06:06.578Z,5.23
2018-08-30T09:08:34.669Z,5.40
2018-08-30T09:11:02.686Z,4.80
2018-08-30T09:13:30.729Z,4.67
2018-08-30T09:15:58.750Z,5.00
2018-08-30T09:18:26.717Z,5.27
2018-08-30T09:20:54.654Z,4.97
2018-08-30T09:23:22.626Z,5.77
2018-08-30T09:25:50.746Z,5.53
2018-08-30T09:28:18.745Z,5.37
2018-08-30T09:30:46.742Z,5.30
2018-08-30T09:33:14.886Z,4.93
2018-08-30T09:35:42.953Z,4.77
2018-08-30T09:38:10.979Z,4.47
2018-08-30T09:40:39.278Z,5.10
2018-08-30T09:43:07.846Z,5.43
2018-08-30T09:45:36.075Z,5.20
2018-08-30T09:48:04.507Z,4.50
2018-08-30T09:50:32.906Z,5.20
2018-08-30T09:53:01.154Z,4.67
2018-08-30T09:55:29.531Z,4.70
2018-08-30T09:57:57.810Z,4.43
2018-08-30T10:00:31.334Z,4.73
2018-08-30T10:02:59.305Z,4.57
2018-08-30T10:05:27.273Z,4.50
2018-08-30T10:07:55.294Z,4.90
2018-08-30T10:10:23.547Z,4.70
2018-08-30T10:12:51.759Z,4.97
2018-08-30T10:15:20.122Z,4.60
2018-08-30T10:17:48.387Z,4.90
2018-08-30T10:20:16.639Z,4.23
2018-08-30T10:22:44.883Z,4.60
2018-08-30T10:25:13.308Z,4.13
2018-08-30T10:27:41.296Z,4.50
2018-08-30T10:30:09.679Z,4.20
2018-08-30T10:32:38.335Z,4.60
2018-08-30T10:35:06.571Z,5.43
2018-08-30T10:37:34.879Z,4.23
2018-08-30T10:40:03.467Z,3.87
2018-08-30T10:42:31.755Z,3.97
2018-08-30T10:44:59.982Z,4.10
2018-08-30T10:47:28.224Z,3.93
2018-08-30T10:49:56.488Z,3.80
2018-08-30T10:52:24.675Z,4.43
2018-08-30T10:54:52.871Z,4.07
2018-08-30T10:57:21.138Z,4.40
2018-08-30T10:59:49.354Z,4.97
2018-08-30T11:02:17.592Z,4.20
2018-08-30T11:04:45.872Z,3.60
2018-08-30T11:07:14.619Z,4.40
2018-08-30T11:09:42.840Z,4.40
2018-08-30T11:12:11.133Z,4.00
2018-08-30T11:14:39.368Z,4.33
2018-08-30T11:17:08.661Z,4.30
2018-08-30T11:19:36.911Z,4.43
2018-08-30T11:22:05.168Z,4.30
2018-08-30T11:24:33.788Z,4.10
2018-08-30T11:27:02.047Z,4.57
2018-08-30T11:29:30.328Z,3.90
2018-08-30T11:31:58.640Z,3.90
2018-08-30T11:34:26.948Z,4.43
2018-08-30T11:36:55.217Z,4.43
2018-08-30T11:39:23.764Z,4.97
2018-08-30T11:41:52.030Z,3.80
2018-08-30T11:44:20.229Z,4.17
2018-08-30T11:46:48.476Z,4.10
2018-08-30T11:49:16.736Z,4.10
2018-08-30T11:51:44.988Z,3.93
2018-08-30T11:54:13.193Z,4.03
2018-08-30T11:56:41.384Z,3.90
2018-08-30T11:59:09.785Z,4.50
2018-08-30T12:01:38.064Z,3.90
2018-08-30T12:04:06.373Z,3.90
2018-08-30T12:06:34.880Z,4.30
2018-08-30T12:09:03.466Z,3.83
2018-08-30T12:11:31.699Z,3.83
2018-08-30T12:13:59.950Z,3.80
2018-08-30T12:16:28.201Z,3.83
2018-08-30T12:18:56.531Z,4.07
2018-08-30T12:21:24.718Z,3.90
2018-08-30T12:23:53.069Z,4.47
2018-08-30T12:26:21.342Z,3.43
2018-08-30T12:28:49.647Z,3.17
2018-08-30T12:31:17.896Z,4.07
2018-08-30T12:33:45.970Z,4.93
2018-08-30T12:36:13.927Z,4.10
2018-08-30T12:38:41.908Z,4.03
2018-08-30T12:41:09.885Z,3.40
2018-08-30T12:43:38.633Z,3.20
2018-08-30T12:46:06.384Z,3.50
2018-08-30T12:48:34.423Z,3.10
2018-08-30T12:51:02.488Z,3.20
2018-08-30T12:53:30.434Z,3.10
2018-08-30T12:55:58.549Z,3.07
2018-08-30T12:58:26.986Z,3.90
2018-08-30T13:00:54.977Z,3.10
2018-08-30T13:03:22.952Z,3.10
2018-08-30T13:05:51.035Z,3.60
2018-08-30T13:08:18.977Z,2.90
2018-08-30T13:10:46.999Z,3.17
2018-08-30T13:13:14.959Z,3.20
2018-08-30T13:15:43.062Z,3.50
2018-08-30T13:18:11.199Z,2.77
2018-08-30T13:20:39.328Z,3.60
2018-08-30T13:23:07.306Z,3.27
2018-08-30T13:25:35.346Z,3.53
2018-08-30T13:28:03.525Z,3.10
2018-08-30T13:30:32.164Z,3.43
2018-08-30T13:33:00.746Z,3.33
2018-08-30T13:35:28.887Z,3.80
2018-08-30T13:37:57.340Z,3.83
2018-08-30T13:40:25.555Z,3.40
2018-08-30T13:42:53.821Z,3.07
2018-08-30T13:45:22.244Z,3.40
2018-08-30T13:47:50.760Z,4.13
2018-08-30T13:50:19.093Z,3.53
2018-08-30T13:52:47.441Z,3.83
2018-08-30T13:55:15.707Z,4.10
2018-08-30T13:57:44.055Z,2.97
2018-08-30T14:00:12.211Z,3.53
2018-08-30T14:02:39.868Z,3.03
2018-08-30T14:05:07.862Z,2.87
2018-08-30T14:07:35.877Z,3.00
2018-08-30T14:10:04.406Z,2.97
2018-08-30T14:12:31.992Z,3.47
2018-08-30T14:14:59.932Z,3.20
2018-08-30T14:17:27.647Z,4.30
2018-08-30T14:19:55.721Z,3.30
2018-08-30T14:22:23.704Z,2.70
2018-08-30T14:24:51.695Z,3.27
2018-08-30T14:27:19.700Z,2.80
2018-08-30T14:29:47.852Z,3.07
2018-08-30T14:32:15.871Z,3.30
2018-08-30T14:34:43.937Z,3.20
2018-08-30T14:37:11.984Z,2.90
2018-08-30T14:39:40.031Z,3.13
2018-08-30T14:42:08.396Z,2.80
2018-08-30T14:44:36.364Z,2.80
2018-08-30T14:47:04.643Z,3.07
2018-08-30T14:49:32.496Z,2.80
2018-08-30T14:52:00.484Z,3.40
2018-08-30T14:54:28.539Z,2.80
2018-08-30T14:56:56.484Z,2.93
2018-08-30T14:59:24.483Z,2.97
2018-08-30T15:01:52.476Z,2.63
2018-08-30T15:04:20.492Z,3.53
2018-08-30T15:06:48.490Z,4.30
2018-08-30T15:09:16.517Z,3.10
2018-08-30T15:11:44.664Z,3.37
2018-08-30T15:14:12.672Z,3.50
2018-08-30T15:16:40.653Z,2.80
2018-08-30T15:19:08.616Z,3.87
2018-08-30T15:21:36.691Z,3.90
2018-08-30T15:24:04.605Z,3.50
2018-08-30T15:26:32.651Z,3.47
2018-08-30T15:29:00.849Z,2.97
2018-08-30T15:31:28.824Z,3.13
2018-08-30T15:33:57.218Z,3.53
2018-08-30T15:36:25.165Z,2.97
2018-08-30T15:38:53.144Z,3.10
2018-08-30T15:41:21.281Z,3.07
2018-08-30T15:43:49.117Z,3.10
2018-08-30T15:46:17.157Z,2.83
2018-08-30T15:48:45.289Z,3.57
2018-08-30T15:51:13.549Z,3.00
2018-08-30T15:53:41.713Z,3.27
2018-08-30T15:56:09.999Z,2.77
2018-08-30T15:58:38.169Z,2.70
2018-08-30T16:01:06.397Z,3.23
2018-08-30T16:03:35.665Z,3.17
2018-08-30T16:06:04.554Z,2.80
2018-08-30T16:08:32.881Z,2.90
2018-08-30T16:11:01.689Z,2.90
2018-08-30T16:13:29.977Z,3.00
2018-08-30T16:15:58.437Z,2.97
2018-08-30T16:18:26.709Z,2.97
2018-08-30T16:20:54.845Z,3.23
2018-08-30T16:23:26.473Z,2.97
2018-08-30T16:25:54.808Z,2.90
2018-08-30T16:28:23.970Z,3.13
2018-08-30T16:30:52.292Z,2.97
2018-08-30T16:33:20.501Z,3.00
2018-08-30T16:35:48.857Z,2.97
2018-08-30T16:38:17.001Z,2.97
2018-08-30T16:40:45.833Z,3.63
2018-08-30T16:43:14.117Z,3.47
2018-08-30T16:45:42.681Z,3.53
2018-08-30T16:48:10.903Z,3.20
2018-08-30T16:50:39.117Z,3.53
2018-08-30T16:53:07.383Z,2.90
2018-08-30T16:55:36.268Z,3.20
2018-08-30T16:58:04.421Z,3.97
2018-08-30T17:00:32.745Z,3.20
2018-08-30T17:03:01.636Z,3.63
2018-08-30T17:05:30.282Z,3.57
2018-08-30T17:07:59.272Z,3.10
2018-08-30T17:10:27.769Z,3.67
2018-08-30T17:12:56.264Z,2.73
2018-08-30T17:15:24.569Z,3.27
2018-08-30T17:17:52.868Z,2.63
2018-08-30T17:20:24.833Z,2.90
2018-08-30T17:22:53.048Z,3.10
2018-08-30T17:25:21.354Z,3.37
2018-08-30T17:27:49.584Z,3.23
2018-08-30T17:30:17.803Z,3.60
2018-08-30T17:32:46.049Z,2.93
2018-08-30T17:35:14.248Z,2.73
2018-08-30T17:37:42.540Z,3.30
2018-08-30T17:40:10.808Z,3.17
2018-08-30T17:42:39.053Z,3.60
2018-08-30T17:45:07.335Z,2.87
2018-08-30T17:47:35.521Z,3.30
2018-08-30T17:50:03.809Z,2.90
2018-08-30T17:52:32.038Z,2.80
2018-08-30T17:55:00.320Z,2.90
2018-08-30T17:57:28.569Z,3.47
2018-08-30T17:59:56.807Z,2.93
2018-08-30T18:02:25.049Z,3.17
2018-08-30T18:04:53.290Z,2.60
2018-08-30T18:07:22.109Z,3.07
2018-08-30T18:09:50.385Z,2.47
2018-08-30T18:12:19.132Z,2.87
2018-08-30T18:14:47.281Z,3.33
2018-08-30T18:17:15.704Z,2.80
2018-08-30T18:19:43.929Z,2.53
2018-08-30T18:22:12.149Z,3.60
2018-08-30T18:24:40.371Z,3.20
2018-08-30T18:27:08.628Z,2.53
2018-08-30T18:29:36.900Z,4.03
2018-08-30T18:32:05.130Z,2.80
2018-08-30T18:34:33.337Z,2.43
2018-08-30T18:37:01.583Z,3.10
2018-08-30T18:39:29.781Z,3.10
2018-08-30T18:41:57.989Z,2.90
2018-08-30T18:44:26.246Z,2.50
2018-08-30T18:46:54.474Z,3.20
2018-08-30T18:49:22.685Z,2.33
2018-08-30T18:51:50.918Z,2.53
2018-08-30T18:54:19.190Z,3.80
2018-08-30T18:56:47.408Z,2.57
2018-08-30T18:59:16.426Z,2.70
2018-08-30T19:01:44.675Z,2.50
2018-08-30T19:04:13.022Z,3.00
2018-08-30T19:06:41.233Z,2.13
2018-08-30T19:09:10.819Z,2.37
2018-08-30T19:11:39.170Z,2.40
2018-08-30T19:14:07.507Z,2.10
2018-08-30T19:16:41.233Z,2.70
2018-08-30T19:19:18.774Z,2.37
2018-08-30T19:21:47.036Z,2.00
2018-08-30T19:24:20.571Z,2.00
2018-08-30T19:26:48.866Z,2.50
2018-08-30T19:29:16.810Z,2.87
2018-08-30T19:31:44.987Z,2.47
2018-08-30T19:34:13.091Z,1.90
2018-08-30T19:36:40.991Z,2.53
2018-08-30T19:39:09.550Z,2.20
2018-08-30T19:41:37.490Z,2.43
2018-08-30T19:44:05.515Z,2.33
2018-08-30T19:46:33.595Z,2.17
2018-08-30T19:49:01.556Z,2.27
2018-08-30T19:51:29.608Z,2.17
2018-08-30T19:53:58.512Z,2.23
2018-08-30T19:56:26.551Z,2.30
2018-08-30T19:58:54.524Z,1.93
2018-08-30T20:01:22.538Z,2.17
2018-08-30T20:03:50.580Z,2.20
2018-08-30T20:06:18.551Z,2.17
2018-08-30T20:08:46.504Z,2.10
2018-08-30T20:11:14.620Z,2.50
2018-08-30T20:13:42.580Z,3.07
2018-08-30T20:16:10.535Z,2.13
2018-08-30T20:18:38.735Z,2.53
2018-08-30T20:21:06.939Z,3.00
2018-08-30T20:23:35.259Z,2.17
2018-08-30T20:26:03.516Z,2.23
2018-08-30T20:28:31.743Z,3.07
2018-08-30T20:30:59.995Z,2.40
2018-08-30T20:33:28.239Z,2.43
2018-08-30T20:35:56.515Z,1.90
2018-08-30T20:38:24.735Z,2.30
2018-08-30T20:40:53.039Z,2.60
2018-08-30T20:43:21.323Z,2.30
2018-08-30T20:45:49.556Z,2.90
2018-08-30T20:48:17.760Z,3.17
2018-08-30T20:50:45.962Z,2.47
2018-08-30T20:53:14.186Z,2.00
2018-08-30T20:55:42.403Z,2.20
2018-08-30T20:58:10.596Z,2.07
2018-08-30T21:00:38.835Z,2.30
2018-08-30T21:03:07.096Z,2.37
2018-08-30T21:05:35.299Z,2.20
2018-08-30T21:08:03.507Z,2.60
2018-08-30T21:10:31.725Z,2.67
2018-08-30T21:12:59.937Z,2.80
2018-08-30T21:15:28.172Z,2.30
2018-08-30T21:17:56.380Z,2.10
2018-08-30T21:20:24.627Z,2.10
2018-08-30T21:22:52.916Z,2.77
2018-08-30T21:25:21.160Z,2.40
2018-08-30T21:27:49.397Z,2.53
2018-08-30T21:30:17.623Z,2.23
2018-08-30T21:32:45.845Z,2.63
2018-08-30T21:35:14.080Z,2.37
2018-08-30T21:37:42.280Z,2.50
2018-08-30T21:40:10.500Z,2.50
2018-08-30T21:42:38.716Z,2.40
2018-08-30T21:45:07.004Z,2.37
2018-08-30T21:47:35.245Z,2.30
2018-08-30T21:50:03.449Z,2.60
2018-08-30T21:52:31.664Z,2.37
2018-08-30T21:54:59.907Z,2.73
2018-08-30T21:57:28.088Z,7.80
2018-08-30T21:59:56.328Z,2.60
2018-08-30T22:02:24.657Z,2.33
2018-08-30T22:04:52.838Z,2.53
2018-08-30T22:07:21.080Z,2.27
2018-08-30T22:09:49.270Z,1.97
2018-08-30T22:12:17.498Z,2.17
2018-08-30T22:14:45.473Z,2.50
2018-08-30T22:17:13.438Z,2.57
2018-08-30T22:19:41.390Z,2.40
2018-08-30T22:22:09.354Z,2.63
2018-08-30T22:24:37.494Z,2.13
2018-08-30T22:27:05.458Z,2.40
2018-08-30T22:29:33.458Z,2.60
2018-08-30T22:32:01.446Z,2.47
2018-08-30T22:34:29.442Z,2.77
2018-08-30T22:36:57.403Z,2.17
2018-08-30T22:39:25.371Z,2.03
2018-08-30T22:41:53.390Z,2.07
2018-08-30T22:44:21.354Z,2.40
2018-08-30T22:46:49.395Z,2.30
2018-08-30T22:49:17.361Z,2.80
2018-08-30T22:51:45.554Z,2.17
2018-08-30T22:54:13.786Z,2.43
2018-08-30T22:56:42.054Z,2.90
2018-08-30T22:59:10.298Z,2.30
2018-08-30T23:01:38.554Z,2.47
2018-08-30T23:04:06.778Z,2.60
2018-08-30T23:06:35.032Z,2.77
2018-08-30T23:09:03.731Z,2.40
2018-08-30T23:11:31.927Z,2.03
2018-08-30T23:14:00.155Z,2.30
2018-08-30T23:16:28.383Z,2.23
2018-08-30T23:18:56.687Z,2.20
2018-08-30T23:21:24.754Z,2.20
2018-08-30T23:23:52.755Z,2.20
2018-08-30T23:26:20.719Z,3.07
2018-08-30T23:28:48.955Z,2.27
2018-08-30T23:31:17.194Z,2.23
2018-08-30T23:33:45.391Z,2.20
2018-08-30T23:36:13.630Z,2.37
2018-08-30T23:38:41.851Z,2.60
2018-08-30T23:41:10.031Z,2.40
2018-08-30T23:43:38.231Z,2.53
2018-08-30T23:46:06.431Z,2.50
2018-08-30T23:48:34.650Z,2.30
2018-08-30T23:51:02.849Z,2.53
2018-08-30T23:53:31.043Z,2.13
2018-08-30T23:55:59.263Z,2.07
2018-08-30T23:58:38.831Z,2.30
